Time;durP1;ratioP1;P1;durP2;ratioP2;P2;SDS_P1;SDS_P2;PMS_P1;PMS_P2;Temp;Humidity;BMP_temperature;BMP_pressure;BME280_temperature;BME280_humidity;BME280_pressure;Samples;Min_cycle;Max_cycle;Signal;HPM_P1;HPM_P2
2022/04/15 00:02:09;;;;;;;0.20;0.20;;;;;;;14.47;54.38;100338.63;6251259;23;20008;-76
2022/04/15 00:04:35;;;;;;;0.20;0.20;;;;;;;14.49;53.75;100348.28;6249269;23;20074;-76
2022/04/15 00:07:01;;;;;;;0.20;0.20;;;;;;;14.46;53.52;100342.59;6247891;23;20004;-76
2022/04/15 00:09:27;;;;;;;0.20;0.20;;;;;;;14.55;53.75;100349.53;6247253;23;20004;-78
2022/04/15 00:11:53;;;;;;;0.20;0.20;;;;;;;14.52;53.70;100347.50;6247574;23;20011;-76
2022/04/15 00:14:19;;;;;;;0.20;0.20;;;;;;;14.51;53.73;100351.50;6247666;23;20015;-76
2022/04/15 00:16:45;;;;;;;0.20;0.20;;;;;;;14.33;53.68;100333.69;6247503;23;20004;-77
2022/04/15 00:19:12;;;;;;;0.20;0.20;;;;;;;14.44;53.98;100351.41;6247316;23;20444;-76
2022/04/15 00:21:37;;;;;;;0.20;0.20;;;;;;;14.33;54.11;100356.88;6247010;23;20007;-76
2022/04/15 00:24:03;;;;;;;0.20;0.20;;;;;;;14.28;54.43;100360.03;6247234;23;20008;-77
2022/04/15 00:26:29;;;;;;;0.20;0.20;;;;;;;14.33;54.23;100365.28;6247100;23;20104;-76
2022/04/15 00:28:54;;;;;;;0.20;0.20;;;;;;;14.26;54.35;100361.59;6247254;23;20008;-76
2022/04/15 00:31:20;;;;;;;0.20;0.20;;;;;;;14.35;54.37;100371.28;6247523;23;20004;-76
2022/04/15 00:33:45;;;;;;;0.20;0.20;;;;;;;14.29;54.17;100366.44;6247539;23;20022;-75
2022/04/15 00:36:11;;;;;;;0.20;0.20;;;;;;;14.27;53.79;100368.78;6247571;23;20381;-75
2022/04/15 00:38:36;;;;;;;0.20;0.20;;;;;;;14.26;54.09;100362.41;6247616;23;20083;-76
2022/04/15 00:41:02;;;;;;;0.20;0.20;;;;;;;14.22;53.98;100366.34;6248147;23;20015;-76
2022/04/15 00:43:27;;;;;;;0.20;0.20;;;;;;;14.26;53.64;100372.78;6247820;23;20004;-76
2022/04/15 00:45:53;;;;;;;0.20;0.20;;;;;;;14.19;53.82;100370.72;6247174;23;20105;-75
2022/04/15 00:48:19;;;;;;;0.20;0.20;;;;;;;14.23;53.37;100373.56;6246758;23;20016;-76
2022/04/15 00:50:45;;;;;;;0.20;0.20;;;;;;;14.30;52.83;100382.03;6246848;23;20027;-75
2022/04/15 00:53:12;;;;;;;0.20;0.20;;;;;;;14.28;53.22;100376.81;6246004;23;20018;-75
2022/04/15 00:55:40;;;;;;;0.20;0.20;;;;;;;14.27;52.79;100380.00;6247142;23;20026;-76
2022/04/15 00:58:06;;;;;;;0.20;0.20;;;;;;;14.24;52.78;100386.38;6246715;23;20083;-75
2022/04/15 01:00:34;;;;;;;0.20;0.20;;;;;;;14.24;52.95;100381.56;6246906;23;20440;-75
2022/04/15 01:03:02;;;;;;;0.20;0.20;;;;;;;14.20;52.90;100391.13;6245835;23;20033;-75
2022/04/15 01:05:29;;;;;;;0.20;0.20;;;;;;;14.19;52.90;100386.72;6246831;23;20424;-76
2022/04/15 01:07:56;;;;;;;0.20;0.20;;;;;;;14.14;52.57;100383.06;6246744;23;20036;-76
2022/04/15 01:10:24;;;;;;;0.20;0.20;;;;;;;14.23;52.85;100391.16;6246445;23;20039;-75
2022/04/15 01:12:53;;;;;;;0.20;0.20;;;;;;;14.23;52.34;100390.38;6246473;23;20008;-76
2022/04/15 01:15:21;;;;;;;0.20;0.20;;;;;;;14.19;52.35;100395.09;6246629;23;20004;-75
2022/04/15 01:17:46;;;;;;;0.20;0.20;;;;;;;14.19;52.20;100401.50;6246388;23;20019;-75
2022/04/15 01:20:12;;;;;;;0.20;0.20;;;;;;;14.07;52.59;100401.75;6247371;23;20012;-76
2022/04/15 01:22:55;;;;;;;0.20;0.20;;;;;;;14.19;52.32;100393.09;6247146;23;20361;-75
2022/04/15 01:25:20;;;;;;;0.20;0.20;;;;;;;14.14;52.64;100388.66;6248508;23;20004;-76
2022/04/15 01:27:48;;;;;;;0.20;0.20;;;;;;;14.11;52.53;100389.44;6248526;23;20012;-76
2022/04/15 01:30:16;;;;;;;0.20;0.20;;;;;;;14.19;52.47;100395.09;6247691;23;20121;-76
2022/04/15 01:32:42;;;;;;;0.20;0.20;;;;;;;14.04;52.57;100394.94;6246081;23;20008;-76
2022/04/15 01:35:09;;;;;;;0.20;0.20;;;;;;;14.00;52.32;100394.06;6246026;23;20011;-75
2022/04/15 01:37:35;;;;;;;0.20;0.20;;;;;;;14.05;52.04;100407.72;6246777;23;20004;-76
2022/04/15 01:40:04;;;;;;;0.20;0.20;;;;;;;13.79;52.64;100377.03;6246627;23;20105;-76
2022/04/15 01:42:29;;;;;;;0.20;0.20;;;;;;;13.81;52.73;100397.84;6245693;23;20008;-76
2022/04/15 01:44:55;;;;;;;0.20;0.20;;;;;;;13.95;52.83;100397.19;6246401;23;20011;-76
2022/04/15 01:47:20;;;;;;;0.20;0.20;;;;;;;13.94;52.56;100395.59;6246079;23;20413;-76
2022/04/15 01:49:46;;;;;;;0.20;0.20;;;;;;;13.90;52.87;100394.75;6245795;23;20004;-76
2022/04/15 01:52:11;;;;;;;0.20;0.20;;;;;;;13.89;52.54;100399.53;6245782;23;20016;-76
2022/04/15 01:54:37;;;;;;;0.20;0.20;;;;;;;13.90;52.37;100391.94;6245818;23;20008;-76
2022/04/15 01:57:03;;;;;;;0.20;0.20;;;;;;;13.84;52.65;100393.47;6245925;23;20015;-75
2022/04/15 01:59:29;;;;;;;0.20;0.20;;;;;;;13.80;52.89;100395.44;6246522;23;20074;-76
2022/04/15 02:01:54;;;;;;;0.20;0.20;;;;;;;13.72;53.17;100385.31;6245665;23;20358;-76
2022/04/15 02:04:21;;;;;;;0.20;0.20;;;;;;;13.67;53.35;100385.66;6245919;23;20019;-76
2022/04/15 02:06:47;;;;;;;0.20;0.20;;;;;;;13.73;53.20;100384.13;6246862;22;20004;-75
2022/04/15 02:09:13;;;;;;;0.20;0.20;;;;;;;13.68;53.15;100387.25;6220433;23;20086;-76
2022/04/15 02:11:38;;;;;;;0.20;0.20;;;;;;;13.62;53.70;100384.78;6246119;23;20008;-76
2022/04/15 02:14:04;;;;;;;0.20;0.20;;;;;;;13.58;54.15;100383.97;6245839;23;20444;-75
2022/04/15 02:16:29;;;;;;;0.20;0.20;;;;;;;13.55;54.04;100379.13;6246064;23;20020;-76
2022/04/15 02:18:55;;;;;;;0.20;0.20;;;;;;;13.45;54.43;100382.56;6245841;23;20481;-76
2022/04/15 02:21:20;;;;;;;0.20;0.20;;;;;;;13.45;53.87;100382.56;6245362;23;20015;-76
2022/04/15 02:23:46;;;;;;;0.20;0.20;;;;;;;13.46;54.02;100381.38;6246259;23;20022;-76
2022/04/15 02:26:11;;;;;;;0.20;0.20;;;;;;;13.38;53.74;100385.25;6245564;23;20491;-75
2022/04/15 02:28:37;;;;;;;0.20;0.20;;;;;;;13.35;53.53;100386.81;6246336;23;20008;-76
2022/04/15 02:31:02;;;;;;;0.20;0.20;;;;;;;13.35;53.15;100391.59;6245363;23;20352;-76
2022/04/15 02:33:28;;;;;;;0.20;0.20;;;;;;;13.31;52.41;100379.56;6246481;23;20043;-75
2022/04/15 02:35:53;;;;;;;0.20;0.20;;;;;;;13.31;52.88;100380.34;6246131;23;20340;-76
2022/04/15 02:38:19;;;;;;;0.20;0.20;;;;;;;13.27;52.82;100378.72;6246260;23;20421;-76
2022/04/15 02:40:45;;;;;;;0.20;0.20;;;;;;;13.32;52.80;100382.00;6246247;23;20095;-76
2022/04/15 02:43:11;;;;;;;0.20;0.20;;;;;;;13.28;52.28;100380.31;6220901;23;20015;-76
2022/04/15 02:45:37;;;;;;;0.20;0.20;;;;;;;13.29;52.90;100381.94;6221901;23;20008;-75
2022/04/15 02:48:03;;;;;;;0.20;0.20;;;;;;;13.22;52.62;100370.66;6247850;23;20448;-76
2022/04/15 02:50:29;;;;;;;0.20;0.20;;;;;;;13.23;52.50;100377.84;6249155;23;20034;-75
2022/04/15 02:52:54;;;;;;;0.20;0.20;;;;;;;13.11;52.75;100374.06;6248734;23;20389;-76
2022/04/15 02:55:23;;;;;;;0.20;0.20;;;;;;;13.10;52.66;100380.00;6246878;23;20048;-76
2022/04/15 02:57:52;;;;;;;0.20;0.20;;;;;;;13.11;52.69;100374.06;6246204;23;20016;-75
2022/04/15 03:00:18;;;;;;;0.20;0.20;;;;;;;13.22;53.26;100376.25;6245722;23;20329;-76
2022/04/15 03:02:47;;;;;;;0.20;0.20;;;;;;;13.21;52.57;100371.78;6245175;23;20000;-76
2022/04/15 03:05:12;;;;;;;0.20;0.20;;;;;;;13.18;53.12;100376.16;6245465;23;20011;-75
2022/04/15 03:07:39;;;;;;;0.20;0.20;;;;;;;13.15;53.23;100368.50;6245347;23;20004;-75
2022/04/15 03:10:05;;;;;;;0.20;0.20;;;;;;;13.17;52.94;100379.31;6245186;23;20004;-76
2022/04/15 03:12:38;;;;;;;0.20;0.20;;;;;;;13.17;52.75;100373.75;6245144;23;20004;-75
2022/04/15 03:15:09;;;;;;;0.20;0.20;;;;;;;13.16;52.41;100369.34;6247131;23;20444;-75
2022/04/15 03:17:35;;;;;;;0.20;0.20;;;;;;;13.18;52.46;100358.59;6249489;22;20008;-76
2022/04/15 03:20:04;;;;;;;0.20;0.20;;;;;;;13.16;52.59;100355.38;6249433;22;20027;-76
2022/04/15 03:22:34;;;;;;;0.20;0.20;;;;;;;13.18;52.19;100347.41;6247248;23;20011;-76
2022/04/15 03:25:05;;;;;;;0.20;0.20;;;;;;;13.20;52.05;100357.00;6247653;23;20012;-76
2022/04/15 03:27:30;;;;;;;0.20;0.20;;;;;;;13.25;51.98;100353.13;6247249;23;20011;-75
2022/04/15 03:29:59;;;;;;;0.20;0.20;;;;;;;13.38;51.55;100348.13;6247555;23;20015;-76
2022/04/15 03:32:27;;;;;;;0.20;0.20;;;;;;;13.32;51.96;100351.25;6247546;23;20448;-76
2022/04/15 03:34:59;;;;;;;0.20;0.20;;;;;;;13.33;51.58;100350.06;6247191;23;20095;-75
2022/04/15 03:37:25;;;;;;;0.20;0.20;;;;;;;13.29;51.44;100348.41;6249059;22;20008;-75
2022/04/15 03:39:52;;;;;;;0.20;0.20;;;;;;;13.40;51.07;100348.56;6247370;23;20421;-75
2022/04/15 03:42:18;;;;;;;0.20;0.20;;;;;;;13.40;50.59;100335.38;6247526;23;20011;-75
2022/04/15 03:44:47;;;;;;;0.20;0.20;;;;;;;13.43;50.08;100336.63;6247956;23;20015;-75
2022/04/15 03:47:19;;;;;;;0.20;0.20;;;;;;;13.48;49.86;100339.91;6248899;23;20040;-78
2022/04/15 03:49:47;;;;;;;0.20;0.20;;;;;;;13.48;49.58;100334.31;6247779;23;20054;-76
2022/04/15 03:52:12;;;;;;;0.20;0.20;;;;;;;13.49;49.45;100330.31;6251908;22;20019;-76
2022/04/15 03:54:41;;;;;;;0.20;0.20;;;;;;;13.51;48.81;100336.31;6252112;22;20008;-76
2022/04/15 03:57:09;;;;;;;0.20;0.20;;;;;;;13.47;48.72;100338.25;6252805;22;20137;-75
2022/04/15 03:59:37;;;;;;;0.20;0.20;;;;;;;13.48;48.43;100339.91;6251916;22;20014;-76
2022/04/15 04:02:04;;;;;;;0.20;0.20;;;;;;;13.48;48.15;100337.09;6251709;22;20088;-75
2022/04/15 04:04:30;;;;;;;0.20;0.20;;;;;;;13.47;47.29;100341.06;6252822;22;20095;-75
2022/04/15 04:07:01;;;;;;;0.20;0.20;;;;;;;13.62;46.36;100336.47;6252597;22;20012;-75
2022/04/15 04:09:29;;;;;;;0.20;0.20;;;;;;;13.48;45.80;100328.72;6251558;22;20027;-75
2022/04/15 04:11:57;;;;;;;0.20;0.20;;;;;;;13.62;45.50;100342.06;6252665;22;20061;-75
2022/04/15 04:14:22;;;;;;;0.20;0.20;;;;;;;13.62;45.22;100345.66;6251857;22;20018;-75
2022/04/15 04:16:48;;;;;;;0.20;0.20;;;;;;;13.72;44.43;100344.19;6252779;22;20047;-75
2022/04/15 04:19:16;;;;;;;0.20;0.20;;;;;;;13.71;43.79;100342.59;6251768;22;20101;-75
2022/04/15 04:21:45;;;;;;;0.20;0.20;;;;;;;13.83;43.95;100338.72;6251568;22;20003;-75
2022/04/15 04:24:13;;;;;;;0.20;0.20;;;;;;;13.76;43.25;100352.63;6251866;22;20003;-75
2022/04/15 04:26:44;;;;;;;0.20;0.20;;;;;;;13.71;42.98;100358.56;6251471;22;20038;-75
2022/04/15 04:29:13;;;;;;;0.20;0.20;;;;;;;13.69;43.79;100355.31;6251669;22;20011;-75
2022/04/15 04:31:41;;;;;;;0.20;0.20;;;;;;;13.75;43.79;100353.81;6251393;22;20422;-75
2022/04/15 04:34:07;;;;;;;0.20;0.20;;;;;;;13.72;43.65;100360.16;6251318;22;20062;-75
2022/04/15 04:36:32;;;;;;;0.20;0.20;;;;;;;13.50;44.24;100326.34;6251359;22;20012;-74
2022/04/15 04:39:00;;;;;;;0.20;0.20;;;;;;;13.67;48.45;100357.69;6250980;22;20000;-75
2022/04/15 04:41:25;;;;;;;0.20;0.20;;;;;;;13.72;50.00;100365.75;6251241;22;20007;-75
2022/04/15 04:43:51;;;;;;;0.20;0.20;;;;;;;13.62;50.55;100359.63;6251236;22;20014;-75
2022/04/15 04:46:20;;;;;;;0.20;0.20;;;;;;;13.67;50.13;100352.91;6251238;22;20066;-75
2022/04/15 04:48:46;;;;;;;0.20;0.20;;;;;;;13.80;49.65;100367.47;6251063;22;20079;-75
2022/04/15 04:51:11;;;;;;;0.20;0.20;;;;;;;13.73;50.25;100365.38;6251982;22;20039;-75
2022/04/15 04:53:37;;;;;;;0.20;0.20;;;;;;;13.81;49.58;100366.28;6250608;22;20455;-75
2022/04/15 04:56:02;;;;;;;0.20;0.20;;;;;;;13.87;48.01;100364.75;6251160;22;20150;-74
2022/04/15 04:58:28;;;;;;;0.20;0.20;;;;;;;13.95;46.75;100366.44;6251350;22;20392;-75
2022/04/15 05:00:53;;;;;;;0.20;0.20;;;;;;;14.12;45.87;100360.25;6251810;22;20486;-75
2022/04/15 05:03:19;;;;;;;0.20;0.20;;;;;;;14.29;43.58;100355.25;6251564;22;20364;-75
2022/04/15 05:05:44;;;;;;;0.20;0.20;;;;;;;14.28;43.83;100359.22;6251744;22;20332;-75
2022/04/15 05:08:10;;;;;;;0.20;0.20;;;;;;;14.42;42.48;100353.75;6251539;22;20008;-75
2022/04/15 05:10:35;;;;;;;0.20;0.20;;;;;;;14.51;43.20;100345.88;6251546;22;20058;-75
2022/04/15 05:13:01;;;;;;;0.20;0.20;;;;;;;14.61;43.06;100344.38;6251541;22;20011;-75
2022/04/15 05:15:27;;;;;;;0.20;0.20;;;;;;;14.76;42.27;100339.72;6251892;22;20015;-75
2022/04/15 05:17:52;;;;;;;0.20;0.20;;;;;;;14.89;42.20;100341.81;6251293;22;20011;-75
2022/04/15 05:20:18;;;;;;;0.20;0.20;;;;;;;14.90;41.62;100339.81;6252060;22;20008;-74
2022/04/15 05:22:44;;;;;;;0.20;0.20;;;;;;;15.11;42.21;100347.56;6252390;22;20008;-74
2022/04/15 05:25:10;;;;;;;0.20;0.20;;;;;;;15.27;40.92;100347.28;6251861;22;20012;-74
2022/04/15 05:27:36;;;;;;;0.20;0.20;;;;;;;15.38;40.33;100342.53;6252191;22;20007;-75
2022/04/15 05:30:03;;;;;;;0.20;0.20;;;;;;;15.52;40.36;100348.25;6252254;22;20010;-74
2022/04/15 05:32:29;;;;;;;0.20;0.20;;;;;;;15.70;40.41;100332.31;6251969;22;20013;-75
2022/04/15 05:34:54;;;;;;;0.20;0.20;;;;;;;15.98;40.02;100339.25;6253229;22;20145;-75
2022/04/15 05:37:20;;;;;;;0.20;0.20;;;;;;;16.33;39.75;100335.72;6252502;22;20006;-74
2022/04/15 05:39:45;;;;;;;0.20;0.20;;;;;;;16.88;39.74;100348.63;6253223;22;20352;-75
2022/04/15 05:42:11;;;;;;;0.20;0.20;;;;;;;17.21;39.08;100351.03;6250553;22;20081;-75
2022/04/15 05:44:36;;;;;;;0.20;0.20;;;;;;;17.60;38.69;100332.47;6251631;22;20007;-74
2022/04/15 05:47:02;;;;;;;0.20;0.20;;;;;;;17.91;38.11;100333.56;6250544;22;20015;-74
2022/04/15 05:49:27;;;;;;;0.20;0.20;;;;;;;18.22;37.51;100338.22;6250376;22;20019;-74
2022/04/15 05:51:53;;;;;;;0.20;0.20;;;;;;;18.25;37.67;100343.03;6250406;22;20022;-74
2022/04/15 05:54:18;;;;;;;0.20;0.20;;;;;;;18.54;37.56;100338.03;6250136;22;20031;-74
2022/04/15 05:56:47;;;;;;;0.20;0.20;;;;;;;18.69;36.90;100333.09;6250887;22;20011;-74
2022/04/15 05:59:12;;;;;;;0.20;0.20;;;;;;;18.79;36.80;100346.28;6250875;22;20054;-75
2022/04/15 06:01:38;;;;;;;0.20;0.20;;;;;;;18.93;36.44;100341.78;6250227;22;20421;-74
2022/04/15 06:04:03;;;;;;;0.20;0.20;;;;;;;18.94;35.97;100346.19;6251136;22;20004;-74
2022/04/15 06:06:29;;;;;;;0.20;0.20;;;;;;;19.28;36.18;100338.63;6250273;22;20012;-75
2022/04/15 06:08:55;;;;;;;0.20;0.20;;;;;;;19.36;35.73;100344.97;6250290;22;20065;-74
2022/04/15 06:11:21;;;;;;;0.20;0.20;;;;;;;19.48;35.43;100335.19;6277355;22;20003;-75
2022/04/15 06:13:47;;;;;;;0.10;0.10;;;;;;;19.30;34.52;100336.19;6225177;22;20035;-74
2022/04/15 06:16:20;;;;;;;0.10;0.10;;;;;;;19.08;36.12;100340.44;6250533;22;20355;-74
2022/04/15 06:18:46;;;;;;;0.10;0.10;;;;;;;19.07;36.11;100350.91;6250507;22;20008;-74
2022/04/15 06:21:12;;;;;;;0.20;0.20;;;;;;;18.75;36.46;100345.56;6250426;22;20011;-74
2022/04/15 06:23:40;;;;;;;0.20;0.20;;;;;;;17.93;37.69;100328.31;6250763;22;20011;-74
2022/04/15 06:26:09;;;;;;;0.20;0.20;;;;;;;18.00;38.46;100333.91;6250390;22;20317;-74
2022/04/15 06:28:34;;;;;;;0.20;0.20;;;;;;;18.13;39.18;100340.69;6250447;22;20008;-75
2022/04/15 06:31:00;;;;;;;0.20;0.20;;;;;;;18.03;39.35;100338.72;6250449;22;20327;-74
2022/04/15 06:33:28;;;;;;;0.20;0.20;;;;;;;18.30;38.78;100342.59;6250017;22;20011;-74
2022/04/15 06:35:54;;;;;;;0.20;0.20;;;;;;;18.21;38.83;100342.25;6249876;22;20004;-74
2022/04/15 06:38:21;;;;;;;0.20;0.20;;;;;;;18.78;38.30;100355.19;6224570;22;20066;-74
2022/04/15 06:40:46;;;;;;;0.10;0.10;;;;;;;19.05;37.85;100349.72;6249797;22;20003;-74
2022/04/15 06:43:14;;;;;;;0.20;0.20;;;;;;;19.37;37.04;100355.84;6249672;22;20011;-74
2022/04/15 06:45:39;;;;;;;0.10;0.10;;;;;;;19.75;36.10;100353.03;6249645;22;20007;-74
2022/04/15 06:48:05;;;;;;;0.10;0.10;;;;;;;20.32;35.27;100359.97;6277089;22;20010;-74
2022/04/15 06:50:31;;;;;;;0.20;0.20;;;;;;;20.21;34.89;100365.78;6249683;22;20087;-73
2022/04/15 06:52:57;;;;;;;0.20;0.20;;;;;;;19.99;35.02;100358.81;6244134;23;20066;-74
2022/04/15 06:55:23;;;;;;;0.10;0.10;;;;;;;20.27;34.70;100374.56;6245103;23;20329;-73
2022/04/15 06:57:51;;;;;;;0.10;0.10;;;;;;;20.70;34.14;100369.13;6244096;23;20008;-73
2022/04/15 07:00:22;;;;;;;0.10;0.10;;;;;;;20.65;34.13;100373.22;6244752;23;20321;-73
2022/04/15 07:02:49;;;;;;;0.10;0.10;;;;;;;20.75;33.84;100377.13;6244556;23;20008;-73
2022/04/15 07:05:15;;;;;;;0.20;0.20;;;;;;;20.59;34.98;100383.41;6244546;23;20079;-74
2022/04/15 07:07:42;;;;;;;0.10;0.10;;;;;;;21.13;33.75;100391.03;6244420;23;20040;-74
2022/04/15 07:10:10;;;;;;;0.10;0.10;;;;;;;21.06;33.25;100386.31;6244904;23;20019;-74
2022/04/15 07:12:36;;;;;;;0.10;0.10;;;;;;;21.36;33.20;100387.44;6244344;23;20008;-74
2022/04/15 07:15:03;;;;;;;0.20;0.20;;;;;;;21.76;32.55;100387.50;6244137;23;20066;-74
2022/04/15 07:17:29;;;;;;;0.10;0.10;;;;;;;21.85;32.61;100385.69;6245842;22;20008;-74
2022/04/15 07:19:55;;;;;;;0.10;0.10;;;;;;;22.05;31.88;100382.88;6244445;23;20008;-74
2022/04/15 07:22:21;;;;;;;0.10;0.10;;;;;;;22.13;30.96;100386.38;6244175;23;20146;-74
2022/04/15 07:24:49;;;;;;;0.10;0.10;;;;;;;22.22;30.47;100392.25;6244812;23;20008;-74
2022/04/15 07:27:15;;;;;;;0.10;0.10;;;;;;;22.46;31.23;100396.56;6245235;23;20095;-74
2022/04/15 07:29:41;;;;;;;0.20;0.20;;;;;;;22.86;30.69;100392.81;6244806;23;20031;-74
2022/04/15 07:32:07;;;;;;;0.20;0.20;;;;;;;23.17;29.33;100384.75;6244475;23;20004;-74
2022/04/15 07:34:34;;;;;;;0.20;0.20;;;;;;;23.73;28.55;100393.03;6244348;23;20032;-74
2022/04/15 07:37:03;;;;;;;0.10;0.10;;;;;;;24.25;28.11;100398.44;6244539;23;20008;-73
2022/04/15 07:39:29;;;;;;;0.10;0.10;;;;;;;24.65;27.38;100397.25;6244885;23;20008;-74
2022/04/15 07:41:57;;;;;;;0.10;0.10;;;;;;;24.19;26.78;100399.44;6244169;23;20062;-73
2022/04/15 07:44:23;;;;;;;0.20;0.20;;;;;;;23.93;26.89;100393.69;6244996;23;20012;-73
2022/04/15 07:46:51;;;;;;;0.10;0.10;;;;;;;24.10;26.94;100408.63;6245029;23;20034;-74
2022/04/15 07:49:17;;;;;;;0.10;0.10;;;;;;;23.11;28.51;100403.56;6244288;23;20039;-73
2022/04/15 07:51:43;;;;;;;0.10;0.10;;;;;;;23.37;27.05;100407.38;6243894;23;20016;-74
2022/04/15 07:54:09;;;;;;;0.10;0.10;;;;;;;24.20;26.96;100406.72;6244380;23;20020;-74
2022/04/15 07:56:35;;;;;;;0.10;0.10;;;;;;;23.98;27.17;100407.34;6246043;22;20004;-74
2022/04/15 07:59:01;;;;;;;0.20;0.20;;;;;;;23.80;28.38;100407.03;6244800;23;20115;-74
2022/04/15 08:01:30;;;;;;;0.10;0.10;;;;;;;23.64;27.26;100404.25;6246485;23;20379;-74
2022/04/15 08:03:56;;;;;;;0.10;0.10;;;;;;;23.76;26.87;100409.22;6247719;22;20054;-74
2022/04/15 08:06:23;;;;;;;0.10;0.10;;;;;;;24.15;27.48;100410.91;6246440;23;20011;-74
2022/04/15 08:08:55;;;;;;;0.10;0.10;;;;;;;23.69;29.29;100412.22;6246304;23;20024;-74
2022/04/15 08:11:25;;;;;;;0.10;0.10;;;;;;;24.62;26.75;100409.56;6246437;23;20436;-74
2022/04/15 08:13:51;;;;;;;0.10;0.10;;;;;;;24.09;26.96;100403.41;6246680;23;20345;-75
2022/04/15 08:16:17;;;;;;;0.10;0.10;;;;;;;24.29;26.97;100404.03;6246091;23;20008;-74
2022/04/15 08:18:43;;;;;;;0.13;0.13;;;;;;;24.89;26.35;100418.44;6246399;23;20058;-74
2022/04/15 08:21:09;;;;;;;0.20;0.20;;;;;;;25.07;25.57;100415.81;6246112;23;20004;-74
2022/04/15 08:23:36;;;;;;;0.15;0.15;;;;;;;25.83;24.64;100422.59;6246698;23;20007;-75
2022/04/15 08:26:02;;;;;;;0.10;0.10;;;;;;;25.54;25.14;100423.59;6246684;23;20012;-76
2022/04/15 08:28:27;;;;;;;0.10;0.10;;;;;;;26.18;23.74;100426.19;6246468;23;20310;-76
2022/04/15 08:30:53;;;;;;;0.10;0.10;;;;;;;26.36;23.44;100425.50;6246441;23;20437;-75
2022/04/15 08:33:19;;;;;;;0.10;0.10;;;;;;;26.77;22.92;100434.94;6246361;23;20015;-76
2022/04/15 08:35:47;;;;;;;0.10;0.10;;;;;;;26.13;23.16;100430.44;6246295;23;20074;-76
2022/04/15 08:38:13;;;;;;;0.15;0.15;;;;;;;27.08;22.67;100435.75;6246257;23;20004;-75
2022/04/15 08:40:46;;;;;;;0.10;0.10;;;;;;;27.41;23.16;100435.19;6246348;23;20011;-76
2022/04/15 08:43:11;;;;;;;0.10;0.10;;;;;;;27.11;23.33;100428.28;6247192;22;20007;-76
2022/04/15 08:45:41;;;;;;;0.10;0.10;;;;;;;28.17;21.90;100417.13;6247527;23;20000;-76
2022/04/15 08:48:08;;;;;;;0.10;0.10;;;;;;;28.14;22.49;100423.81;6246051;23;20369;-75
2022/04/15 08:50:36;;;;;;;0.20;0.20;;;;;;;28.60;21.52;100425.78;6245906;23;20015;-75
2022/04/15 08:53:03;;;;;;;0.10;0.10;;;;;;;27.37;22.07;100423.13;6245317;23;20042;-75
2022/04/15 08:55:30;;;;;;;0.10;0.10;;;;;;;28.46;21.58;100421.56;6246081;23;20012;-76
2022/04/15 08:57:57;;;;;;;0.10;0.10;;;;;;;29.00;20.85;100411.19;6245774;23;20005;-76
2022/04/15 09:00:23;;;;;;;0.10;0.10;;;;;;;27.78;21.51;100404.59;6247771;22;20415;-75
2022/04/15 09:02:54;;;;;;;0.10;0.10;;;;;;;27.67;21.35;100407.91;6246986;22;20000;-75
2022/04/15 09:05:22;;;;;;;0.10;0.10;;;;;;;27.58;21.21;100405.03;6245690;23;20070;-75
2022/04/15 09:07:48;;;;;;;0.10;0.10;;;;;;;27.75;21.64;100404.75;6245523;23;20011;-75
2022/04/15 09:10:18;;;;;;;0.10;0.10;;;;;;;27.49;21.18;100390.78;6246071;23;20008;-75
2022/04/15 09:12:46;;;;;;;0.10;0.10;;;;;;;27.59;21.96;100394.41;6246539;22;20301;-75
2022/04/15 09:15:13;;;;;;;0.10;0.10;;;;;;;27.74;20.82;100394.59;6245440;23;20004;-75
2022/04/15 09:17:49;;;;;;;0.10;0.10;;;;;;;27.27;21.12;100395.78;6245810;23;20074;-75
2022/04/15 09:20:16;;;;;;;0.10;0.10;;;;;;;27.73;21.12;100387.31;6245651;23;20004;-75
2022/04/15 09:22:42;;;;;;;0.10;0.10;;;;;;;27.64;20.73;100383.13;6245438;23;20058;-75
2022/04/15 09:25:10;;;;;;;0.10;0.10;;;;;;;27.82;21.70;100387.31;6247588;22;20004;-75
2022/04/15 09:27:36;;;;;;;0.10;0.10;;;;;;;28.03;21.45;100377.75;6246033;23;20016;-75
2022/04/15 09:30:04;;;;;;;0.10;0.10;;;;;;;28.80;20.50;100365.91;6246198;23;20008;-76
2022/04/15 09:32:30;;;;;;;0.10;0.10;;;;;;;28.83;20.51;100359.22;6245435;23;20094;-75
2022/04/15 09:35:05;;;;;;;0.10;0.10;;;;;;;28.53;19.64;100341.06;6245724;23;20031;-75
2022/04/15 09:37:37;;;;;;;0.10;0.10;;;;;;;28.31;20.49;100357.66;6245458;23;20364;-75
2022/04/15 09:40:17;;;;;;;0.10;0.10;;;;;;;28.89;19.61;100340.09;6246733;22;20107;-75
2022/04/15 09:42:53;;;;;;;0.17;0.17;;;;;;;29.38;19.65;100346.66;6245070;23;20086;-75
2022/04/15 09:45:24;;;;;;;0.10;0.10;;;;;;;29.98;19.21;100339.75;6245211;23;20014;-76
2022/04/15 09:47:56;;;;;;;0.10;0.10;;;;;;;30.24;18.26;100340.78;6245536;23;20022;-75
2022/04/15 09:50:25;;;;;;;0.10;0.10;;;;;;;30.48;18.00;100342.75;6245988;23;20012;-75
2022/04/15 09:53:15;;;;;;;0.10;0.10;;;;;;;29.97;18.10;100341.03;6244741;23;20019;-75
2022/04/15 09:55:42;;;;;;;0.10;0.10;;;;;;;30.15;18.20;100332.28;6245612;23;20337;-75
2022/04/15 09:58:30;;;;;;;0.10;0.10;;;;;;;29.94;18.86;100342.03;6245690;23;20321;-75
2022/04/15 10:00:57;;;;;;;0.10;0.10;;;;;;;29.70;18.15;100342.91;6244118;23;20031;-76
2022/04/15 10:03:25;;;;;;;0.10;0.10;;;;;;;27.82;20.11;100338.72;6244917;23;20417;-74
2022/04/15 10:05:58;;;;;;;0.10;0.10;;;;;;;28.69;19.02;100331.28;6245246;23;20095;-75
2022/04/15 10:08:25;;;;;;;0.10;0.10;;;;;;;28.49;19.10;100311.81;6245150;23;20417;-74
2022/04/15 10:10:52;;;;;;;0.10;0.10;;;;;;;27.82;19.67;100327.28;6246423;22;20084;-75
2022/04/15 10:13:20;;;;;;;0.10;0.10;;;;;;;27.56;20.19;100315.34;6245302;23;20008;-74
2022/04/15 10:15:49;;;;;;;0.10;0.10;;;;;;;27.85;20.16;100309.94;6244796;23;20433;-75
2022/04/15 10:18:20;;;;;;;0.10;0.10;;;;;;;28.33;19.77;100306.50;6246191;22;20066;-75
2022/04/15 10:20:45;;;;;;;0.10;0.10;;;;;;;28.64;19.92;100301.25;6245325;23;20384;-73
2022/04/15 10:23:12;;;;;;;0.10;0.10;;;;;;;28.68;19.92;100304.75;6245217;23;20007;-74
2022/04/15 10:25:42;;;;;;;0.10;0.10;;;;;;;29.37;19.37;100287.75;6244694;23;20000;-75
2022/04/15 10:28:19;;;;;;;0.10;0.10;;;;;;;29.46;18.28;100294.19;6245146;23;20107;-75
2022/04/15 10:30:53;;;;;;;0.10;0.10;;;;;;;29.79;18.81;100301.09;6245347;23;20325;-75
2022/04/15 10:33:30;;;;;;;0.20;0.20;;;;;;;29.81;18.30;100296.44;6244962;23;20038;-75
2022/04/15 10:36:00;;;;;;;0.10;0.10;;;;;;;29.78;17.78;100283.09;6246194;22;20004;-75
2022/04/15 10:38:27;;;;;;;0.10;0.10;;;;;;;29.86;18.58;100294.97;6244874;23;20031;-75
2022/04/15 10:40:55;;;;;;;0.10;0.10;;;;;;;30.26;18.01;100285.78;6244975;23;20008;-75
2022/04/15 10:43:27;;;;;;;0.10;0.10;;;;;;;30.75;18.48;100289.94;6245056;23;20320;-74
2022/04/15 10:46:15;;;;;;;0.10;0.10;;;;;;;30.59;17.79;100288.38;6244622;23;20009;-75
2022/04/15 10:48:42;;;;;;;0.10;0.10;;;;;;;30.52;17.25;100277.28;6245075;23;20396;-75
2022/04/15 10:51:25;;;;;;;0.10;0.10;;;;;;;28.13;18.78;100262.06;6249827;22;20027;-75
2022/04/15 10:53:52;;;;;;;0.10;0.10;;;;;;;27.74;19.73;100263.13;6277291;22;20061;-75
2022/04/15 10:56:19;;;;;;;0.10;0.10;;;;;;;28.55;19.61;100261.25;6250862;22;20008;-75
2022/04/15 11:01:53;;;;;;;0.10;0.10;;;;;;;28.62;18.57;100255.16;6228937;22;20012;-75
2022/04/15 11:04:24;;;;;;;0.10;0.10;;;;;;;28.02;18.53;100249.53;6249833;22;20460;-74
2022/04/15 11:06:50;;;;;;;0.10;0.10;;;;;;;27.43;20.50;100249.78;6250251;22;20074;-75
2022/04/15 11:09:26;;;;;;;0.10;0.10;;;;;;;27.58;19.43;100238.50;6277046;22;20003;-75
2022/04/15 11:11:53;;;;;;;0.10;0.10;;;;;;;26.62;20.34;100244.31;6249996;22;20298;-75
2022/04/15 11:14:32;;;;;;;0.10;0.10;;;;;;;27.30;19.92;100240.59;6276915;22;20039;-75
2022/04/15 11:16:59;;;;;;;0.10;0.10;;;;;;;27.88;20.08;100240.38;6277169;22;20004;-75
2022/04/15 11:19:26;;;;;;;0.10;0.10;;;;;;;28.39;19.45;100241.59;6249240;22;20007;-76
2022/04/15 11:21:54;;;;;;;0.10;0.10;;;;;;;28.79;18.86;100232.63;6249711;22;20455;-75
2022/04/15 11:24:32;;;;;;;0.10;0.10;;;;;;;29.21;18.73;100238.22;6276829;22;20029;-75
2022/04/15 11:27:01;;;;;;;0.10;0.10;;;;;;;29.35;18.30;100241.59;6250263;22;20008;-75
2022/04/15 11:29:31;;;;;;;0.10;0.10;;;;;;;28.76;17.70;100238.53;6249689;22;20082;-75